Time;durP1;ratioP1;P1;durP2;ratioP2;P2;SDS_P1;SDS_P2;PMS_P1;PMS_P2;Temp;Humidity;BMP_temperature;BMP_pressure;BME280_temperature;BME280_humidity;BME280_pressure;Samples;Min_cycle;Max_cycle;Signal;HPM_P1;HPM_P2
2022/05/09 00:00:12;;;;;;;3.97;3.58;;;11.00;99.90;;;;;;4981373;28;20269;-75
2022/05/09 00:02:38;;;;;;;3.60;3.30;;;11.00;99.90;;;;;;4980198;28;20101;-74
2022/05/09 00:05:05;;;;;;;4.75;4.22;;;11.00;99.90;;;;;;4981916;28;20038;-74
2022/05/09 00:07:31;;;;;;;5.03;4.53;;;11.00;99.90;;;;;;4973604;28;20038;-74
2022/05/09 00:09:57;;;;;;;8.85;5.97;;;10.80;99.90;;;;;;4983521;28;20042;-74
2022/05/09 00:12:22;;;;;;;8.93;6.20;;;10.70;99.90;;;;;;4982324;28;20045;-74
2022/05/09 00:14:48;;;;;;;7.38;5.70;;;10.50;99.90;;;;;;4979135;28;20034;-74
2022/05/09 00:17:13;;;;;;;12.98;7.10;;;10.60;99.90;;;;;;4980364;28;20035;-74
2022/05/09 00:19:39;;;;;;;9.95;7.03;;;10.60;99.90;;;;;;4979480;28;20049;-74
2022/05/09 00:22:05;;;;;;;8.82;6.20;;;10.60;99.90;;;;;;4982174;28;20038;-74
2022/05/09 00:24:31;;;;;;;9.77;6.80;;;10.50;99.90;;;;;;4979897;28;20030;-74
2022/05/09 00:26:57;;;;;;;8.73;6.13;;;10.60;99.90;;;;;;4978473;28;20039;-74
2022/05/09 00:29:24;;;;;;;7.85;5.57;;;10.40;99.90;;;;;;4973516;28;20128;-74
2022/05/09 00:31:53;;;;;;;6.10;4.88;;;10.50;99.90;;;;;;4979097;28;20042;-74
2022/05/09 00:34:21;;;;;;;5.57;4.50;;;10.30;99.90;;;;;;4977752;28;20026;-74
2022/05/09 00:36:48;;;;;;;;;;;10.30;99.90;;;;;;4980886;28;20507;-74
2022/05/09 00:39:14;;;;;;;4.97;4.07;;;10.40;99.90;;;;;;4979077;28;19913;-75
2022/05/09 00:41:42;;;;;;;5.20;4.10;;;10.30;99.90;;;;;;4979339;28;20042;-74
2022/05/09 00:44:11;;;;;;;5.55;3.63;;;10.30;99.90;;;;;;4974724;28;20425;-74
2022/05/09 00:46:39;;;;;;;3.85;3.40;;;10.20;99.90;;;;;;4982326;28;20026;-74
2022/05/09 00:49:33;;;;;;;7.13;4.43;;;10.30;99.90;;;;;;4974579;28;20060;-74
2022/05/09 00:52:01;;;;;;;7.97;5.40;;;10.30;99.90;;;;;;4977933;28;20077;-74
2022/05/09 00:54:31;;;;;;;6.32;5.07;;;10.40;99.90;;;;;;4978078;28;20374;-74
2022/05/09 00:57:04;;;;;;;8.20;5.63;;;10.40;99.90;;;;;;4979892;28;20065;-74
2022/05/09 00:59:33;;;;;;;7.20;5.38;;;10.40;99.90;;;;;;4973280;28;20034;-74
2022/05/09 01:01:59;;;;;;;7.22;4.50;;;10.30;99.90;;;;;;4973214;28;20589;-74
2022/05/09 01:04:27;;;;;;;3.70;3.40;;;10.00;99.90;;;;;;4974564;28;20162;-74
2022/05/09 01:06:54;;;;;;;4.43;4.03;;;9.80;99.90;;;;;;4977598;28;20165;-75
2022/05/09 01:09:20;;;;;;;3.88;3.42;;;9.60;99.90;;;;;;4975246;28;20042;-74
2022/05/09 01:11:47;;;;;;;3.55;3.25;;;9.60;99.90;;;;;;4978092;28;20037;-74
2022/05/09 01:14:20;;;;;;;3.65;3.35;;;9.70;99.90;;;;;;4975744;28;20096;-74
2022/05/09 01:16:47;;;;;;;3.25;3.05;;;9.80;99.90;;;;;;4980156;28;20122;-74
2022/05/09 01:19:30;;;;;;;4.20;3.75;;;9.90;99.90;;;;;;4974714;28;21057;-75
2022/05/09 01:21:57;;;;;;;3.58;3.28;;;10.00;99.90;;;;;;4978449;28;20042;-74
2022/05/09 01:24:25;;;;;;;3.75;3.45;;;9.90;99.90;;;;;;4974931;28;20462;-74
2022/05/09 01:26:51;;;;;;;3.97;3.53;;;9.90;99.90;;;;;;4978074;28;20034;-74
2022/05/09 01:29:39;;;;;;;3.53;3.22;;;10.00;99.90;;;;;;4975561;28;20034;-74
2022/05/09 01:32:06;;;;;;;;;;;10.00;99.90;;;;;;4976201;28;20165;-74
2022/05/09 01:34:33;;;;;;;3.13;2.87;;;10.00;99.90;;;;;;4973824;28;19913;-74
2022/05/09 01:37:04;;;;;;;4.68;4.15;;;9.90;99.90;;;;;;4959818;28;20034;-74
2022/05/09 01:39:31;;;;;;;5.50;4.40;;;9.90;99.90;;;;;;4971188;28;20043;-74
2022/05/09 01:41:57;;;;;;;5.55;5.00;;;9.90;99.90;;;;;;4978883;28;20042;-74
2022/05/09 01:44:23;;;;;;;5.90;5.03;;;10.00;99.90;;;;;;4975185;28;20022;-74
2022/05/09 01:49:35;;;;;;;5.72;4.57;;;10.00;99.90;;;;;;4974517;28;20698;-74
2022/05/09 01:52:06;;;;;;;5.15;3.85;;;10.10;99.90;;;;;;4978746;28;20489;-74
2022/05/09 01:54:33;;;;;;;3.80;3.40;;;10.10;99.90;;;;;;4976386;28;20039;-74
2022/05/09 01:56:58;;;;;;;3.10;2.90;;;10.00;99.90;;;;;;4971941;28;20058;-74
2022/05/09 01:59:24;;;;;;;2.80;2.60;;;10.00;99.90;;;;;;4973982;28;20030;-75
2022/05/09 02:01:58;;;;;;;2.28;2.17;;;10.00;99.90;;;;;;4975337;28;20069;-74
2022/05/09 02:04:24;;;;;;;2.60;2.40;;;10.00;99.90;;;;;;4977256;28;20377;-74
2022/05/09 02:06:50;;;;;;;3.15;2.92;;;10.00;99.90;;;;;;4976569;28;20026;-74
2022/05/09 02:09:16;;;;;;;2.95;2.75;;;9.90;99.90;;;;;;4976825;28;20044;-74
2022/05/09 02:11:41;;;;;;;3.38;3.08;;;9.90;99.90;;;;;;4973038;28;20042;-74
2022/05/09 02:14:08;;;;;;;3.67;3.38;;;9.90;99.90;;;;;;4976198;28;20113;-74
2022/05/09 02:16:35;;;;;;;3.55;3.25;;;9.90;99.90;;;;;;4975754;28;20038;-74
2022/05/09 02:19:00;;;;;;;3.80;3.50;;;9.90;99.90;;;;;;4973584;28;20046;-75
2022/05/09 02:21:26;;;;;;;3.45;3.15;;;9.90;99.90;;;;;;4973647;28;20076;-74
2022/05/09 02:23:52;;;;;;;3.25;2.95;;;9.90;99.90;;;;;;4974693;28;20393;-74
2022/05/09 02:26:18;;;;;;;3.35;3.10;;;9.90;99.90;;;;;;4976225;28;20379;-74
2022/05/09 02:28:43;;;;;;;4.07;3.05;;;9.80;99.90;;;;;;4976806;28;20030;-74
2022/05/09 02:31:09;;;;;;;4.53;3.20;;;9.80;99.90;;;;;;4973544;28;20405;-74
2022/05/09 02:33:34;;;;;;;4.10;3.75;;;9.80;99.90;;;;;;4978594;28;20038;-74
2022/05/09 02:36:00;;;;;;;4.43;4.03;;;9.70;99.90;;;;;;4978823;28;20042;-74
2022/05/09 02:38:28;;;;;;;4.03;3.65;;;9.70;99.90;;;;;;4975817;28;20458;-74
2022/05/09 02:40:55;;;;;;;4.22;3.55;;;9.70;99.90;;;;;;4979897;28;20042;-74
2022/05/09 02:43:20;;;;;;;3.28;2.97;;;9.70;99.90;;;;;;4980612;28;20054;-74
2022/05/09 02:45:46;;;;;;;3.65;3.30;;;9.70;99.90;;;;;;4979442;28;20073;-74
2022/05/09 02:48:13;;;;;;;4.53;3.35;;;9.60;99.90;;;;;;4985362;28;20022;-74
2022/05/09 02:50:39;;;;;;;3.38;3.08;;;9.60;99.90;;;;;;4973896;28;20054;-74
2022/05/09 02:53:07;;;;;;;3.90;3.47;;;9.50;99.90;;;;;;4979983;28;20169;-74
2022/05/09 02:55:34;;;;;;;4.07;3.72;;;9.50;99.90;;;;;;4979096;28;20030;-74
2022/05/09 02:58:01;;;;;;;3.83;3.45;;;9.50;99.90;;;;;;4976009;28;21290;-74
2022/05/09 03:00:29;;;;;;;3.90;3.50;;;9.50;99.90;;;;;;4980944;28;20046;-74
2022/05/09 03:05:41;;;;;;;4.00;3.60;;;9.40;99.90;;;;;;4979725;28;20993;-74
2022/05/09 03:08:11;;;;;;;4.82;4.10;;;9.30;99.90;;;;;;4979416;28;20085;-74
2022/05/09 03:10:38;;;;;;;4.10;3.80;;;9.30;99.90;;;;;;4979514;28;20385;-74
2022/05/09 03:13:06;;;;;;;5.80;3.78;;;9.20;99.90;;;;;;4975305;28;20458;-74
2022/05/09 03:15:37;;;;;;;5.25;4.47;;;9.20;99.90;;;;;;4979887;28;20030;-74
2022/05/09 03:18:03;;;;;;;6.53;4.57;;;9.30;99.90;;;;;;4979944;28;20042;-74
2022/05/09 03:20:29;;;;;;;5.35;4.38;;;9.20;99.90;;;;;;4979508;28;20035;-74
2022/05/09 03:22:55;;;;;;;6.63;4.13;;;9.00;99.90;;;;;;4978293;28;20121;-74
2022/05/09 03:25:21;;;;;;;3.90;3.58;;;9.00;99.90;;;;;;4976696;28;20394;-75
2022/05/09 03:27:47;;;;;;;3.08;2.88;;;9.00;99.90;;;;;;4977091;28;20042;-74
2022/05/09 03:30:15;;;;;;;3.08;2.88;;;8.90;99.90;;;;;;4978285;28;20031;-74
2022/05/09 03:32:41;;;;;;;3.45;3.15;;;8.80;99.90;;;;;;4977677;28;20042;-74
2022/05/09 03:35:08;;;;;;;4.82;3.03;;;8.70;99.90;;;;;;4973125;28;20038;-74
2022/05/09 03:37:34;;;;;;;4.07;3.08;;;8.70;99.90;;;;;;4977842;28;20058;-74
2022/05/09 03:40:00;;;;;;;3.33;3.05;;;8.80;99.90;;;;;;4978538;28;20312;-74
2022/05/09 03:42:25;;;;;;;3.22;3.03;;;8.80;99.90;;;;;;4976311;28;21222;-74
2022/05/09 03:44:51;;;;;;;4.05;3.50;;;8.80;99.90;;;;;;4975946;28;20030;-74
2022/05/09 03:47:17;;;;;;;5.38;3.58;;;8.80;99.90;;;;;;4981900;28;22067;-74
2022/05/09 03:49:43;;;;;;;5.50;3.72;;;8.80;99.90;;;;;;4976856;28;20038;-74
2022/05/09 03:52:09;;;;;;;3.40;3.10;;;8.60;99.90;;;;;;4977965;28;20371;-74
2022/05/09 03:54:35;;;;;;;3.50;3.20;;;8.50;99.90;;;;;;4978474;28;20054;-74
2022/05/09 03:57:01;;;;;;;3.50;3.20;;;8.50;99.90;;;;;;4984692;28;20041;-74
2022/05/09 03:59:26;;;;;;;3.75;3.38;;;8.60;99.90;;;;;;4982269;28;20469;-73
2022/05/09 04:01:52;;;;;;;3.47;3.17;;;8.60;99.90;;;;;;4964620;28;20063;-74
2022/05/09 04:04:18;;;;;;;3.13;2.80;;;8.60;99.90;;;;;;4980233;28;20035;-74
2022/05/09 04:06:44;;;;;;;2.85;2.65;;;8.70;99.90;;;;;;4984206;28;20117;-74
2022/05/09 04:09:10;;;;;;;3.08;2.17;;;8.60;99.90;;;;;;4985031;28;20596;-74
2022/05/09 04:11:35;;;;;;;2.17;2.08;;;8.60;99.90;;;;;;4973164;28;20039;-74
2022/05/09 04:14:01;;;;;;;2.15;1.80;;;8.70;99.90;;;;;;4986049;28;20037;-74
2022/05/09 04:19:11;;;;;;;2.20;2.10;;;8.30;99.90;;;;;;4979807;28;20041;-74
2022/05/09 04:21:37;;;;;;;2.22;2.13;;;8.20;99.90;;;;;;4981636;28;20043;-74
2022/05/09 04:24:03;;;;;;;2.53;2.35;;;8.20;99.90;;;;;;4985397;28;20034;-74
2022/05/09 04:26:32;;;;;;;2.50;2.40;;;8.20;99.90;;;;;;4980428;28;21519;-74
2022/05/09 04:28:59;;;;;;;2.40;2.30;;;8.20;99.90;;;;;;4985912;28;20041;-74
2022/05/09 04:31:26;;;;;;;2.17;2.08;;;8.30;99.90;;;;;;4982237;28;20067;-74
2022/05/09 04:33:52;;;;;;;2.60;2.40;;;8.30;99.90;;;;;;4981917;28;20026;-74
2022/05/09 04:36:18;;;;;;;2.40;2.20;;;8.40;99.90;;;;;;4980283;28;20034;-74
2022/05/09 04:38:45;;;;;;;2.60;2.40;;;8.40;99.90;;;;;;4981992;28;20041;-74
2022/05/09 04:41:13;;;;;;;3.08;2.05;;;8.40;99.90;;;;;;4987548;28;20125;-74
2022/05/09 04:43:38;;;;;;;2.23;2.10;;;8.40;99.90;;;;;;4979133;28;20038;-74
2022/05/09 04:46:05;;;;;;;3.47;3.17;;;8.30;99.90;;;;;;4986298;28;20034;-74
2022/05/09 04:48:31;;;;;;;3.00;2.80;;;8.20;99.90;;;;;;4985498;28;20048;-74
2022/05/09 04:50:58;;;;;;;3.30;3.03;;;8.30;99.90;;;;;;4981999;28;20074;-74
2022/05/09 04:53:24;;;;;;;3.20;3.00;;;8.40;99.90;;;;;;4981059;28;20421;-74
2022/05/09 04:55:50;;;;;;;3.08;2.88;;;8.40;99.90;;;;;;4981743;28;20452;-74
2022/05/09 04:58:20;;;;;;;2.63;2.47;;;8.50;99.90;;;;;;4980146;28;20034;-74
2022/05/09 05:00:47;;;;;;;2.67;2.47;;;8.40;99.90;;;;;;4983010;28;20496;-74
2022/05/09 05:03:13;;;;;;;5.78;4.93;;;8.50;99.90;;;;;;4979352;28;20049;-74
2022/05/09 05:05:40;;;;;;;5.97;5.18;;;8.50;99.90;;;;;;4979911;28;20728;-74
2022/05/09 05:08:06;;;;;;;4.50;4.10;;;8.50;99.90;;;;;;4985425;28;20612;-75
2022/05/09 05:10:32;;;;;;;4.40;4.00;;;8.50;99.90;;;;;;4979524;28;20038;-74
2022/05/09 05:12:58;;;;;;;4.60;4.10;;;8.70;99.90;;;;;;4983547;28;20042;-74
2022/05/09 05:15:25;;;;;;;6.60;5.85;;;8.90;99.90;;;;;;4984503;28;20052;-74
2022/05/09 05:17:51;;;;;;;6.35;5.75;;;9.10;99.90;;;;;;4980523;28;20470;-74
2022/05/09 05:20:17;;;;;;;8.85;6.60;;;9.20;99.90;;;;;;4990865;28;20061;-74
2022/05/09 05:22:48;;;;;;;7.90;6.22;;;9.30;99.90;;;;;;4977105;28;20062;-74
2022/05/09 05:25:20;;;;;;;8.63;6.03;;;9.40;99.90;;;;;;4982733;28;20476;-74
2022/05/09 05:27:47;;;;;;;11.00;8.57;;;9.60;99.90;;;;;;4982576;28;20018;-74
2022/05/09 05:30:14;;;;;;;14.35;9.27;;;9.90;99.90;;;;;;4990429;28;20034;-74
2022/05/09 05:32:41;;;;;;;18.88;10.25;;;10.20;99.90;;;;;;4978569;28;20137;-74
2022/05/09 05:35:11;;;;;;;15.05;11.13;;;10.40;99.90;;;;;;4976158;28;20073;-74
2022/05/09 05:37:37;;;;;;;15.77;10.93;;;10.60;99.90;;;;;;4982057;28;20053;-74
2022/05/09 05:40:04;;;;;;;15.10;11.18;;;10.80;99.90;;;;;;4987156;28;20074;-74
2022/05/09 05:42:30;;;;;;;15.45;11.85;;;10.90;99.90;;;;;;4988405;28;20038;-75
2022/05/09 05:44:57;;;;;;;14.88;11.13;;;11.10;99.90;;;;;;4978036;28;20038;-74
2022/05/09 05:47:23;;;;;;;16.83;11.75;;;11.20;99.90;;;;;;4986793;28;20031;-75
2022/05/09 05:49:49;;;;;;;16.73;12.40;;;11.40;99.90;;;;;;4985169;28;20043;-75
2022/05/09 05:52:16;;;;;;;15.15;11.35;;;11.40;99.90;;;;;;4984849;28;20406;-75
2022/05/09 05:54:44;;;;;;;17.67;11.77;;;11.50;99.90;;;;;;4984937;28;20039;-75
2022/05/09 05:57:22;;;;;;;17.70;12.48;;;11.70;99.90;;;;;;4985452;28;20030;-75
2022/05/09 06:00:02;;;;;;;16.77;12.10;;;11.80;99.90;;;;;;4979854;28;20068;-75
2022/05/09 06:02:28;;;;;;;17.38;12.45;;;11.90;99.90;;;;;;4976639;28;20113;-74
2022/05/09 06:04:55;;;;;;;15.70;12.98;;;12.00;99.90;;;;;;4985569;28;20042;-74
2022/05/09 06:07:22;;;;;;;15.55;11.80;;;12.10;99.90;;;;;;4979787;28;20038;-74
2022/05/09 06:09:49;;;;;;;14.32;11.70;;;12.20;99.90;;;;;;4979958;28;20478;-74
2022/05/09 06:12:17;;;;;;;18.80;11.63;;;12.30;99.90;;;;;;4984659;28;20045;-75
2022/05/09 06:14:43;;;;;;;16.50;11.57;;;12.40;99.90;;;;;;4980119;28;20100;-75
2022/05/09 06:17:10;;;;;;;14.35;11.48;;;12.60;99.90;;;;;;4979997;28;20485;-75
2022/05/09 06:19:37;;;;;;;20.30;11.73;;;12.70;99.90;;;;;;4979561;28;20046;-74
2022/05/09 06:22:04;;;;;;;15.13;11.50;;;12.90;99.90;;;;;;4980971;28;20497;-74
2022/05/09 06:24:30;;;;;;;14.50;11.70;;;13.00;99.90;;;;;;4982108;28;20035;-75
2022/05/09 06:26:56;;;;;;;13.38;11.38;;;13.20;99.90;;;;;;4981147;28;20036;-75
2022/05/09 06:29:23;;;;;;;12.55;11.07;;;13.30;99.90;;;;;;4978640;28;20258;-75
2022/05/09 06:31:49;;;;;;;16.02;10.95;;;13.40;99.90;;;;;;4979729;28;20069;-75
2022/05/09 06:34:15;;;;;;;15.57;11.77;;;13.50;99.90;;;;;;4980526;28;20026;-75
2022/05/09 06:36:41;;;;;;;17.02;12.73;;;13.60;99.90;;;;;;4981740;28;20037;-74
2022/05/09 06:39:09;;;;;;;17.52;11.57;;;13.80;99.90;;;;;;4980216;28;20113;-75
2022/05/09 06:41:35;;;;;;;17.42;11.60;;;13.80;99.90;;;;;;4983245;28;20050;-74
2022/05/09 06:44:01;;;;;;;16.30;12.32;;;14.00;99.90;;;;;;4978380;28;20668;-75
2022/05/09 06:46:27;;;;;;;16.55;11.80;;;14.10;99.90;;;;;;4983131;28;20026;-75
2022/05/09 06:48:53;;;;;;;16.48;12.48;;;14.20;99.90;;;;;;4979637;28;20045;-74
2022/05/09 06:51:19;;;;;;;13.60;11.63;;;14.20;99.90;;;;;;4982466;28;20034;-75
2022/05/09 06:53:45;;;;;;;14.38;11.38;;;14.30;99.90;;;;;;4980807;28;20110;-75
2022/05/09 06:56:11;;;;;;;14.50;11.52;;;14.30;99.90;;;;;;4981505;28;20038;-75
2022/05/09 06:58:37;;;;;;;14.98;12.00;;;14.40;99.90;;;;;;4977444;28;20038;-75
2022/05/09 07:01:16;;;;;;;13.25;10.32;;;14.50;99.90;;;;;;4982270;28;20054;-75
2022/05/09 07:03:42;;;;;;;;;;;14.70;99.90;;;;;;4981391;28;20038;-74
2022/05/09 07:06:07;;;;;;;17.20;11.75;;;14.80;99.90;;;;;;4980720;28;19921;-75
2022/05/09 07:08:34;;;;;;;15.75;11.88;;;15.00;99.90;;;;;;4981920;28;20038;-75
2022/05/09 07:11:00;;;;;;;15.82;12.02;;;15.00;99.90;;;;;;4982180;28;20096;-75
2022/05/09 07:13:26;;;;;;;20.85;12.18;;;15.20;99.90;;;;;;4982406;28;20171;-75
2022/05/09 07:15:56;;;;;;;15.25;11.68;;;15.30;99.90;;;;;;4980949;28;20095;-75
2022/05/09 07:18:25;;;;;;;16.83;11.73;;;15.30;99.90;;;;;;4983657;28;20026;-75
2022/05/09 07:20:51;;;;;;;16.15;11.95;;;15.40;99.90;;;;;;4987113;28;20436;-76
2022/05/09 07:23:17;;;;;;;14.95;11.05;;;15.50;99.90;;;;;;4982694;28;20042;-74
2022/05/09 07:25:42;;;;;;;17.83;11.90;;;15.60;99.90;;;;;;4984926;28;20038;-75
2022/05/09 07:28:11;;;;;;;17.05;11.23;;;15.60;99.90;;;;;;4985436;28;20049;-75
2022/05/09 07:30:38;;;;;;;15.52;11.50;;;15.70;99.90;;;;;;4984994;28;20125;-75
2022/05/09 07:33:04;;;;;;;17.02;12.32;;;15.80;99.90;;;;;;4985922;28;20026;-75
2022/05/09 07:35:32;;;;;;;18.80;11.40;;;15.90;99.90;;;;;;4985661;28;20042;-75
2022/05/09 07:37:58;;;;;;;14.15;11.32;;;16.00;99.90;;;;;;4984298;28;20062;-75
2022/05/09 07:40:23;;;;;;;14.63;10.77;;;16.00;99.90;;;;;;4988075;28;20433;-75
2022/05/09 07:42:49;;;;;;;15.98;10.98;;;16.00;99.90;;;;;;4967809;28;20045;-75
2022/05/09 07:45:18;;;;;;;15.73;11.15;;;16.10;99.90;;;;;;4984848;28;20034;-74
2022/05/09 07:47:44;;;;;;;16.58;11.23;;;16.20;99.90;;;;;;4982957;28;20434;-75
2022/05/09 07:50:12;;;;;;;15.75;11.60;;;16.40;99.90;;;;;;4984531;28;21912;-75
2022/05/09 07:52:37;;;;;;;17.13;12.18;;;16.30;99.90;;;;;;4985734;28;20062;-75
2022/05/09 07:55:04;;;;;;;17.23;12.10;;;16.40;99.90;;;;;;4982684;28;20066;-75
2022/05/09 07:57:30;;;;;;;16.10;11.52;;;16.40;99.90;;;;;;4984999;28;20497;-75
2022/05/09 07:59:58;;;;;;;17.13;11.95;;;16.40;99.90;;;;;;4983050;28;20038;-75
2022/05/09 08:02:24;;;;;;;15.32;11.88;;;16.50;99.90;;;;;;4986616;28;20055;-75
2022/05/09 08:04:49;;;;;;;17.27;12.55;;;16.60;99.90;;;;;;4982641;28;20044;-75
2022/05/09 08:07:15;;;;;;;18.42;12.68;;;16.60;99.90;;;;;;4987928;28;20081;-75
2022/05/09 08:09:40;;;;;;;17.67;12.77;;;16.60;99.90;;;;;;4981481;28;20493;-75
2022/05/09 08:12:07;;;;;;;17.48;12.25;;;16.40;99.90;;;;;;4989422;28;20022;-75
2022/05/09 08:14:33;;;;;;;16.27;11.75;;;16.40;99.90;;;;;;4978592;28;20082;-75
2022/05/09 08:16:58;;;;;;;16.05;11.27;;;16.60;99.90;;;;;;4985665;28;20042;-75
2022/05/09 08:19:24;;;;;;;14.55;12.05;;;16.60;99.90;;;;;;4979663;28;20031;-75
2022/05/09 08:21:51;;;;;;;14.43;11.65;;;16.60;99.90;;;;;;4983846;28;20082;-75
2022/05/09 08:24:17;;;;;;;17.48;12.43;;;16.70;99.90;;;;;;4989340;28;20022;-75
2022/05/09 08:26:43;;;;;;;17.23;12.35;;;16.70;99.90;;;;;;4984850;28;20142;-75
2022/05/09 08:29:09;;;;;;;15.27;12.00;;;16.60;99.90;;;;;;4979813;28;20086;-75
2022/05/09 08:31:35;;;;;;;15.63;12.02;;;16.90;99.90;;;;;;4978239;28;20054;-75
2022/05/09 08:34:01;;;;;;;13.50;11.80;;;16.80;99.90;;;;;;4977222;28;20045;-75
2022/05/09 08:39:12;;;;;;;16.13;11.60;;;16.80;99.90;;;;;;4983337;28;20065;-74
2022/05/09 08:41:57;;;;;;;14.20;11.50;;;16.50;99.90;;;;;;4983180;28;20038;-74
2022/05/09 08:44:27;;;;;;;14.80;11.80;;;16.80;99.90;;;;;;4982981;28;20109;-75
2022/05/09 08:47:04;;;;;;;14.55;10.93;;;17.20;99.90;;;;;;4980987;28;20494;-75
2022/05/09 08:49:34;;;;;;;13.05;10.00;;;17.50;99.90;;;;;;4985317;28;20030;-75
2022/05/09 08:52:07;;;;;;;14.75;9.85;;;17.70;99.90;;;;;;4980732;28;20116;-75
2022/05/09 08:54:35;;;;;;;12.10;9.77;;;17.90;99.90;;;;;;4982351;28;20030;-75
2022/05/09 08:57:05;;;;;;;12.25;9.43;;;17.80;99.90;;;;;;4982364;28;20030;-74
2022/05/09 08:59:42;;;;;;;14.80;10.73;;;17.70;99.90;;;;;;4980739;28;20042;-75
2022/05/09 09:02:15;;;;;;;14.13;10.48;;;17.80;99.90;;;;;;4980691;28;20399;-74
2022/05/09 09:04:44;;;;;;;13.20;10.60;;;18.00;99.90;;;;;;4979585;28;20058;-75
2022/05/09 09:07:12;;;;;;;13.98;10.25;;;18.10;99.90;;;;;;4982911;28;20026;-75
2022/05/09 09:09:41;;;;;;;13.18;11.25;;;17.90;99.90;;;;;;4982531;28;20038;-75
2022/05/09 09:12:45;;;;;;;13.10;10.63;;;17.80;99.90;;;;;;4980409;28;20035;-75
2022/05/09 09:15:41;;;;;;;11.45;9.65;;;17.80;99.90;;;;;;4986785;28;20041;-75
2022/05/09 09:18:26;;;;;;;11.30;9.85;;;18.00;99.90;;;;;;4979895;28;20035;-74
2022/05/09 09:21:06;;;;;;;13.93;11.02;;;18.20;99.90;;;;;;4973296;28;20038;-74
2022/05/09 09:24:03;;;;;;;11.90;10.10;;;18.10;99.90;;;;;;4985701;28;20047;-75
2022/05/09 09:27:08;;;;;;;13.93;9.98;;;18.20;99.90;;;;;;4987394;28;20057;-75
2022/05/09 09:29:58;;;;;;;12.13;9.38;;;18.00;99.90;;;;;;4977565;28;20113;-74
2022/05/09 09:32:23;;;;;;;12.65;9.48;;;18.00;99.90;;;;;;4980133;28;20038;-75
2022/05/09 09:34:56;;;;;;;13.30;9.02;;;18.00;99.90;;;;;;4983076;28;20035;-75
2022/05/09 09:37:35;;;;;;;14.07;10.20;;;18.20;99.90;;;;;;4979482;28;20080;-75
2022/05/09 09:40:01;;;;;;;12.50;9.20;;;18.30;99.90;;;;;;4987180;28;20070;-75
2022/05/09 09:42:27;;;;;;;10.43;8.95;;;18.60;99.90;;;;;;4987807;28;20031;-75
2022/05/09 09:44:54;;;;;;;10.60;8.25;;;18.70;98.80;;;;;;4980388;28;20053;-75
2022/05/09 09:47:20;;;;;;;12.15;8.52;;;18.80;99.90;;;;;;4986986;28;20054;-75
2022/05/09 09:49:49;;;;;;;11.80;8.93;;;18.80;95.50;;;;;;4986366;28;20489;-75
2022/05/09 09:52:28;;;;;;;10.73;9.63;;;18.60;99.90;;;;;;4986149;28;20045;-75
2022/05/09 09:55:07;;;;;;;8.27;7.05;;;18.90;99.90;;;;;;4980936;28;20428;-75
2022/05/09 09:57:35;;;;;;;10.38;7.68;;;19.10;95.00;;;;;;4973686;28;20041;-75
2022/05/09 10:00:29;;;;;;;8.30;7.40;;;19.10;96.50;;;;;;4978707;28;20038;-75
2022/05/09 10:03:14;;;;;;;8.90;6.72;;;19.00;95.60;;;;;;4979497;28;20086;-75
2022/05/09 10:05:43;;;;;;;9.07;7.38;;;18.80;99.20;;;;;;4983213;28;20485;-75
2022/05/09 10:08:29;;;;;;;9.60;7.40;;;18.90;99.70;;;;;;4982899;28;21140;-75
2022/05/09 10:11:04;;;;;;;8.88;7.13;;;19.10;95.30;;;;;;4979752;28;20038;-74
2022/05/09 10:13:41;;;;;;;8.48;7.30;;;19.10;96.10;;;;;;4978081;28;20038;-75
2022/05/09 10:16:14;;;;;;;10.73;7.70;;;19.20;96.80;;;;;;4983494;28;20094;-76
2022/05/09 10:18:42;;;;;;;12.77;7.57;;;19.20;96.20;;;;;;4982755;28;20045;-74
2022/05/09 10:21:17;;;;;;;11.68;7.00;;;19.40;91.00;;;;;;4983460;28;20041;-74
2022/05/09 10:26:36;;;;;;;8.55;7.43;;;19.40;95.30;;;;;;4982380;28;20131;-74
2022/05/09 10:29:14;;;;;;;9.15;8.02;;;19.40;93.50;;;;;;4981880;28;20921;-74
2022/05/09 10:31:43;;;;;;;8.52;7.15;;;19.10;95.10;;;;;;4980545;28;20054;-74
2022/05/09 10:34:26;;;;;;;9.95;7.90;;;19.30;94.80;;;;;;4985137;28;20133;-74
2022/05/09 10:37:03;;;;;;;9.27;7.68;;;19.40;95.50;;;;;;4984485;28;20023;-74
2022/05/09 10:39:38;;;;;;;9.07;7.25;;;19.80;95.70;;;;;;4981896;28;20042;-75
2022/05/09 10:42:15;;;;;;;7.05;6.35;;;19.90;93.30;;;;;;4981557;28;20046;-74
2022/05/09 10:45:02;;;;;;;7.32;6.50;;;19.80;82.70;;;;;;4979231;28;20466;-75
2022/05/09 10:47:37;;;;;;;6.88;6.25;;;19.70;82.60;;;;;;4981595;28;20144;-74
2022/05/09 10:50:38;;;;;;;7.70;6.90;;;19.80;91.50;;;;;;4984033;28;20040;-75
2022/05/09 10:53:25;;;;;;;7.50;6.80;;;19.70;93.10;;;;;;4959881;28;20096;-74
2022/05/09 10:56:05;;;;;;;7.90;6.90;;;20.10;86.90;;;;;;4986590;28;20039;-74
2022/05/09 10:58:55;;;;;;;8.82;7.18;;;20.10;95.80;;;;;;4986333;28;20073;-74
2022/05/09 11:01:30;;;;;;;8.07;7.00;;;20.10;94.40;;;;;;4986753;28;20072;-74
2022/05/09 11:03:56;;;;;;;8.55;6.90;;;19.90;92.50;;;;;;4988805;28;20038;-74
2022/05/09 11:06:44;;;;;;;8.93;7.38;;;20.10;96.00;;;;;;4991557;28;20022;-74
2022/05/09 11:09:45;;;;;;;10.15;7.03;;;19.80;90.10;;;;;;4974659;28;20573;-74
2022/05/09 11:12:18;;;;;;;8.43;7.10;;;19.70;92.60;;;;;;4960717;28;20074;-74
2022/05/09 11:15:00;;;;;;;7.75;6.93;;;19.60;98.40;;;;;;4982192;28;20114;-74
2022/05/09 11:17:55;;;;;;;7.60;6.90;;;19.90;98.10;;;;;;4980810;28;20045;-74
2022/05/09 11:20:30;;;;;;;7.22;6.55;;;19.50;97.30;;;;;;4986456;28;20450;-74
2022/05/09 11:23:25;;;;;;;8.05;7.25;;;19.50;94.70;;;;;;4975961;28;20124;-74
2022/05/09 11:26:13;;;;;;;7.68;6.82;;;19.10;94.00;;;;;;4985731;28;20069;-74
2022/05/09 11:28:39;;;;;;;7.28;6.53;;;18.60;95.50;;;;;;4986320;28;20034;-74
2022/05/09 11:31:37;;;;;;;8.88;7.70;;;19.00;96.70;;;;;;4986655;28;20470;-74
2022/05/09 11:34:14;;;;;;;8.93;7.43;;;19.30;95.80;;;;;;4990918;28;20065;-74
2022/05/09 11:37:04;;;;;;;8.75;6.63;;;19.50;95.20;;;;;;4985494;28;20109;-74
2022/05/09 11:39:39;;;;;;;7.03;6.32;;;19.50;90.70;;;;;;4986563;28;20026;-74
2022/05/09 11:45:47;;;;;;;7.97;6.05;;;19.70;86.90;;;;;;4981691;28;20040;-74
2022/05/09 11:48:44;;;;;;;7.45;5.28;;;19.70;89.60;;;;;;4990818;28;20161;-74
2022/05/09 11:51:46;;;;;;;;;;;19.40;92.90;;;;;;4973314;28;20065;-74
2022/05/09 11:54:16;;;;;;;7.75;5.65;;;19.60;90.10;;;;;;4923148;29;19915;-74
2022/05/09 11:56:48;;;;;;;6.68;5.97;;;19.60;76.30;;;;;;4972923;28;20042;-74
2022/05/09 11:59:30;;;;;;;7.20;6.25;;;19.60;76.40;;;;;;4988742;28;20149;-74
2022/05/09 12:02:06;;;;;;;7.47;6.55;;;19.70;92.00;;;;;;4977455;28;20406;-74
2022/05/09 12:04:48;;;;;;;9.27;7.32;;;19.60;83.00;;;;;;4964982;28;20034;-74
2022/05/09 12:07:26;;;;;;;7.50;5.75;;;19.40;90.50;;;;;;4984419;28;20121;-74
2022/05/09 12:09:54;;;;;;;;;;;19.30;84.20;;;;;;4986328;28;20030;-74
2022/05/09 12:12:41;;;;;;;7.30;6.50;;;19.10;91.20;;;;;;4980919;28;19922;-74
2022/05/09 12:15:29;;;;;;;6.40;5.80;;;19.10;90.30;;;;;;4987311;28;20030;-74
2022/05/09 12:17:57;;;;;;;8.45;6.20;;;19.10;83.90;;;;;;4982625;28;20526;-74
2022/05/09 12:20:29;;;;;;;;;;;19.20;90.60;;;;;;4984585;28;20023;-74
2022/05/09 12:22:57;;;;;;;7.57;5.90;;;19.60;82.40;;;;;;4978867;28;19925;-74
2022/05/09 12:25:35;;;;;;;6.68;6.07;;;19.80;90.70;;;;;;4983225;28;20038;-74
2022/05/09 12:28:04;;;;;;;7.18;5.93;;;19.60;87.60;;;;;;4981842;28;20506;-74
2022/05/09 12:30:51;;;;;;;7.45;6.10;;;19.30;85.50;;;;;;4985798;28;20033;-74
2022/05/09 12:34:01;;;;;;;7.77;5.80;;;19.60;80.90;;;;;;4983773;28;20034;-74
2022/05/09 12:36:35;;;;;;;6.15;5.38;;;19.70;83.00;;;;;;4981597;28;20050;-74
2022/05/09 12:39:24;;;;;;;6.82;5.80;;;19.90;74.30;;;;;;4983932;28;20034;-74
2022/05/09 12:41:54;;;;;;;6.80;5.53;;;20.10;85.00;;;;;;4981730;28;20100;-74
2022/05/09 12:44:40;;;;;;;6.90;5.53;;;20.20;77.10;;;;;;4983642;28;20035;-74
2022/05/09 12:47:08;;;;;;;5.60;5.10;;;20.20;77.80;;;;;;4984124;28;20065;-74
2022/05/09 12:49:43;;;;;;;7.25;5.15;;;20.50;81.10;;;;;;4982071;28;20042;-74
2022/05/09 12:52:11;;;;;;;9.40;6.75;;;20.60;65.40;;;;;;4982442;28;20025;-74
2022/05/09 12:54:39;;;;;;;;;;;20.50;75.20;;;;;;4981717;28;20041;-74
2022/05/09 12:57:06;;;;;;;5.10;4.30;;;20.50;75.10;;;;;;4964399;28;20309;-74
2022/05/09 12:59:53;;;;;;;5.78;4.90;;;20.70;63.10;;;;;;4980820;28;20402;-74
2022/05/09 13:02:21;;;;;;;6.80;6.13;;;20.80;77.40;;;;;;4984991;28;20051;-74
2022/05/09 13:04:49;;;;;;;6.15;5.40;;;20.60;68.30;;;;;;4978971;28;20039;-74
2022/05/09 13:07:15;;;;;;;;;;;20.30;72.60;;;;;;4984234;28;20035;-74
2022/05/09 13:09:53;;;;;;;5.70;4.93;;;20.00;67.80;;;;;;4985334;28;19913;-74
2022/05/09 13:12:38;;;;;;;6.45;5.53;;;20.10;64.10;;;;;;4981406;28;20039;-74
2022/05/09 13:15:10;;;;;;;6.82;5.43;;;20.10;66.70;;;;;;4982702;28;20038;-74
2022/05/09 13:17:41;;;;;;;7.00;5.30;;;20.30;71.50;;;;;;4984770;28;20030;-74
2022/05/09 13:20:12;;;;;;;5.47;4.85;;;20.50;70.30;;;;;;4982745;28;20030;-74